createdAt,value
2019-04-01T00:00:59.567Z,11.13
2019-04-01T00:03:29.187Z,5.33
2019-04-01T00:05:59.172Z,11.47
2019-04-01T00:08:28.495Z,6.90
2019-04-01T00:10:57.734Z,7.37
2019-04-01T00:13:26.955Z,8.13
2019-04-01T00:15:56.100Z,6.20
2019-04-01T00:18:25.347Z,8.37
2019-04-01T00:20:54.412Z,13.23
2019-04-01T00:23:23.708Z,8.50
2019-04-01T00:25:53.035Z,10.37
2019-04-01T00:28:22.110Z,5.67
2019-04-01T00:30:52.389Z,11.33
2019-04-01T00:33:21.483Z,6.07
2019-04-01T00:35:50.663Z,6.10
2019-04-01T00:38:19.881Z,7.83
2019-04-01T00:40:49.128Z,5.57
2019-04-01T00:43:19.938Z,10.53
2019-04-01T00:45:50.870Z,5.70
2019-04-01T00:48:20.011Z,5.87
2019-04-01T00:50:49.102Z,7.00
2019-04-01T00:53:18.315Z,8.83
2019-04-01T00:55:47.706Z,5.57
2019-04-01T00:58:16.949Z,6.43
2019-04-01T01:00:46.208Z,6.10
2019-04-01T01:03:15.496Z,6.17
2019-04-01T01:05:44.745Z,3.30
2019-04-01T01:08:14.106Z,8.40
2019-04-01T01:10:43.423Z,8.27
2019-04-01T01:13:12.493Z,10.30
2019-04-01T01:15:41.779Z,6.57
2019-04-01T01:18:10.975Z,6.33
2019-04-01T01:20:40.265Z,6.47
2019-04-01T01:23:09.490Z,8.20
2019-04-01T01:25:38.577Z,6.03
2019-04-01T01:28:07.809Z,10.13
2019-04-01T01:30:37.081Z,7.57
2019-04-01T01:33:06.346Z,9.40
2019-04-01T01:35:35.491Z,7.77
2019-04-01T01:38:04.589Z,10.17
2019-04-01T01:40:33.626Z,13.97
2019-04-01T01:43:02.897Z,4.67
2019-04-01T01:45:35.687Z,8.97
2019-04-01T01:48:04.862Z,10.40
2019-04-01T01:50:34.314Z,10.70
2019-04-01T01:53:03.610Z,8.23
2019-04-01T01:55:32.691Z,8.50
2019-04-01T01:58:02.029Z,6.23
2019-04-01T02:00:31.757Z,7.00
2019-04-01T02:03:01.010Z,7.07
2019-04-01T02:05:30.174Z,12.43
2019-04-01T02:07:59.540Z,6.53
2019-04-01T02:10:28.769Z,14.70
2019-04-01T02:12:57.896Z,21.13
2019-04-01T02:15:26.963Z,15.37
2019-04-01T02:17:56.033Z,12.03
2019-04-01T02:20:25.269Z,4.73
2019-04-01T02:22:54.589Z,4.97
2019-04-01T02:25:23.970Z,6.63
2019-04-01T02:27:53.025Z,3.33
2019-04-01T02:30:22.116Z,6.70
2019-04-01T02:32:51.501Z,4.00
2019-04-01T02:35:20.602Z,5.70
2019-04-01T02:37:49.707Z,5.97
2019-04-01T02:40:22.053Z,3.90
2019-04-01T02:42:50.835Z,5.53
2019-04-01T02:45:20.000Z,5.23
2019-04-01T02:47:49.428Z,4.07
2019-04-01T02:50:18.623Z,11.77
2019-04-01T02:52:47.962Z,9.60
2019-04-01T02:55:17.213Z,8.20
2019-04-01T02:57:46.504Z,7.30
2019-04-01T03:00:15.876Z,7.33
2019-04-01T03:02:45.003Z,6.07
2019-04-01T03:05:14.155Z,8.13
2019-04-01T03:07:43.434Z,8.00
2019-04-01T03:10:12.705Z,6.00
2019-04-01T03:12:41.836Z,6.17
2019-04-01T03:15:10.963Z,4.83
2019-04-01T03:17:40.292Z,11.40
2019-04-01T03:20:10.447Z,5.03
2019-04-01T03:22:39.534Z,5.23
2019-04-01T03:25:08.751Z,6.00
2019-04-01T03:27:37.844Z,6.80
2019-04-01T03:30:07.180Z,9.43
2019-04-01T03:32:43.989Z,7.30
2019-04-01T03:35:07.116Z,6.40
2019-04-01T03:37:37.205Z,13.53
2019-04-01T03:40:06.427Z,8.40
2019-04-01T03:42:35.803Z,6.40
2019-04-01T03:45:05.481Z,4.30
2019-04-01T03:47:34.804Z,12.30
2019-04-01T03:50:04.589Z,9.80
2019-04-01T03:52:33.907Z,9.57
2019-04-01T03:55:03.402Z,10.17
2019-04-01T03:57:32.676Z,8.83
2019-04-01T04:00:01.707Z,5.57
2019-04-01T04:02:31.085Z,10.20
2019-04-01T04:05:00.616Z,17.83
2019-04-01T04:07:29.821Z,7.03
2019-04-01T04:09:58.926Z,5.77
2019-04-01T04:12:33.815Z,7.10
2019-04-01T04:15:04.011Z,5.77
2019-04-01T04:17:33.097Z,13.07
2019-04-01T04:20:02.427Z,9.60
2019-04-01T04:22:31.639Z,7.23
2019-04-01T04:25:01.050Z,9.83
2019-04-01T04:33:52.285Z,2.23
2019-04-01T04:36:21.442Z,6.20
2019-04-01T04:38:50.905Z,8.20
2019-04-01T04:41:20.058Z,9.10
2019-04-01T04:43:49.476Z,7.23
2019-04-01T04:46:21.073Z,7.87
2019-04-01T04:48:49.687Z,10.50
2019-04-01T04:51:20.591Z,8.07
2019-04-01T04:53:49.697Z,7.67
2019-04-01T04:56:18.899Z,7.43
2019-04-01T04:58:48.115Z,13.23
2019-04-01T05:01:17.517Z,7.57
2019-04-01T05:03:46.674Z,5.30
2019-04-01T05:06:16.052Z,4.63
2019-04-01T05:08:45.186Z,9.37
2019-04-01T05:11:14.400Z,9.53
2019-04-01T05:13:43.655Z,6.03
2019-04-01T05:16:12.794Z,8.97
2019-04-01T05:18:42.065Z,13.33
2019-04-01T05:21:12.118Z,13.23
2019-04-01T05:23:41.954Z,17.07
2019-04-01T05:26:11.572Z,10.47
2019-04-01T05:28:41.709Z,12.93
2019-04-01T05:31:14.500Z,11.60
2019-04-01T05:33:54.844Z,12.57
2019-04-01T05:36:15.326Z,9.83
2019-04-01T05:38:45.075Z,29.73
2019-04-01T05:41:14.362Z,114.77
2019-04-01T05:43:43.746Z,215.50
2019-04-01T05:46:12.904Z,877.27
2019-04-01T05:48:42.264Z,1273.40
2019-04-01T05:51:11.557Z,1935.10
2019-04-01T05:53:40.805Z,1970.07
2019-04-01T05:56:10.072Z,1995.47
2019-04-01T05:58:39.313Z,1699.60
2019-04-01T06:01:10.085Z,1358.93
2019-04-01T06:03:39.480Z,1126.77
2019-04-01T06:06:08.807Z,1117.43
2019-04-01T06:08:38.382Z,1126.30
2019-04-01T06:11:07.550Z,1032.27
2019-04-01T06:13:36.829Z,1077.43
2019-04-01T06:16:05.900Z,1008.67
2019-04-01T06:18:35.048Z,1104.50
2019-04-01T06:21:04.332Z,1121.33
2019-04-01T06:23:33.584Z,1187.80
2019-04-01T06:26:03.111Z,1159.63
2019-04-01T06:28:32.346Z,1141.27
2019-04-01T06:31:01.589Z,1204.53
2019-04-01T06:33:30.710Z,1147.77
2019-04-01T06:35:59.847Z,1140.87
2019-04-01T06:38:29.185Z,1125.70
2019-04-01T06:40:58.582Z,1112.60
2019-04-01T06:43:27.939Z,1117.80
2019-04-01T06:45:57.199Z,1104.17
2019-04-01T06:48:27.230Z,1118.70
2019-04-01T06:50:56.944Z,1047.67
2019-04-01T06:53:26.458Z,1031.40
2019-04-01T06:55:56.311Z,1057.17
2019-04-01T06:58:25.323Z,1065.73
2019-04-01T07:00:55.622Z,1117.80
2019-04-01T07:03:25.051Z,1150.73
2019-04-01T07:05:54.194Z,1152.93
2019-04-01T07:08:23.300Z,1150.20
2019-04-01T07:10:53.034Z,1132.63
2019-04-01T07:13:22.306Z,1135.10
2019-04-01T07:15:52.291Z,1100.67
2019-04-01T07:18:21.625Z,1106.20
2019-04-01T07:20:50.706Z,1100.37
2019-04-01T07:23:19.946Z,1061.97
2019-04-01T07:25:49.302Z,1093.57
2019-04-01T07:28:21.891Z,1107.23
2019-04-01T07:30:51.138Z,1087.60
2019-04-01T07:33:20.388Z,1114.23
2019-04-01T07:35:49.511Z,1156.30
2019-04-01T07:38:18.811Z,1150.63
2019-04-01T07:40:48.216Z,1174.73
2019-04-01T07:43:17.331Z,1147.80
2019-04-01T07:45:46.670Z,1115.93
2019-04-01T07:48:16.088Z,1128.53
2019-04-01T07:50:45.331Z,1118.40
2019-04-01T07:53:14.388Z,1089.10
2019-04-01T07:55:43.997Z,1133.17
2019-04-01T07:58:13.339Z,1232.20
2019-04-01T08:00:42.611Z,1262.97
2019-04-01T08:03:11.693Z,1174.60
2019-04-01T08:05:40.907Z,1156.60
2019-04-01T08:08:10.571Z,1468.40
2019-04-01T08:10:39.790Z,1256.70
2019-04-01T08:13:09.371Z,1252.50
2019-04-01T08:15:38.431Z,1801.93
2019-04-01T08:18:07.752Z,1471.10
2019-04-01T08:20:37.046Z,1171.43
2019-04-01T08:23:06.461Z,1175.80
2019-04-01T08:25:35.533Z,1128.80
2019-04-01T08:28:04.887Z,1126.53
2019-04-01T08:30:34.586Z,1133.83
2019-04-01T08:33:03.936Z,1140.20
2019-04-01T08:35:33.328Z,1154.57
2019-04-01T08:38:02.778Z,1130.87
2019-04-01T08:40:31.917Z,1160.80
2019-04-01T08:43:00.945Z,1165.07
2019-04-01T08:45:30.195Z,1230.73
2019-04-01T08:48:00.449Z,1981.57
2019-04-01T08:50:29.590Z,1266.30
2019-04-01T08:52:58.952Z,1187.83
2019-04-01T08:55:28.424Z,1428.53
2019-04-01T08:57:57.623Z,1196.37
2019-04-01T09:00:26.741Z,1198.93
2019-04-01T09:02:55.938Z,1250.10
2019-04-01T09:05:25.248Z,1778.57
2019-04-01T09:07:54.687Z,1506.33
2019-04-01T09:10:23.850Z,1165.67
2019-04-01T09:12:54.077Z,1373.27
2019-04-01T09:15:23.398Z,1187.67
2019-04-01T09:17:52.648Z,1144.97
2019-04-01T09:20:21.939Z,1170.87
2019-04-01T09:22:51.001Z,1264.10
2019-04-01T09:25:20.070Z,1196.90
2019-04-01T09:27:49.237Z,1216.20
2019-04-01T09:30:18.937Z,1176.63
2019-04-01T09:32:48.183Z,1161.53
2019-04-01T09:35:17.527Z,1368.93
2019-04-01T09:37:46.769Z,1216.10
2019-04-01T09:40:15.865Z,1209.70
2019-04-01T09:42:44.942Z,1162.33
2019-04-01T09:45:14.215Z,1118.83
2019-04-01T09:47:43.259Z,1466.80
2019-04-01T09:50:12.737Z,1193.50
2019-04-01T09:52:41.778Z,1443.67
2019-04-01T09:55:11.054Z,1779.80
2019-04-01T09:57:40.216Z,1208.47
2019-04-01T10:00:10.795Z,1288.00
2019-04-01T10:02:40.027Z,1154.93
2019-04-01T10:05:10.199Z,1159.27
2019-04-01T10:07:40.690Z,1162.90
2019-04-01T10:10:10.131Z,1311.27
2019-04-01T10:12:39.448Z,1135.30
2019-04-01T10:15:09.984Z,1161.13
2019-04-01T10:17:39.350Z,1533.90
2019-04-01T10:20:08.851Z,1723.43
2019-04-01T10:22:38.054Z,1045.27
2019-04-01T10:25:07.205Z,1063.07
2019-04-01T10:27:36.751Z,994.47
2019-04-01T10:30:07.584Z,1504.97
2019-04-01T10:32:37.169Z,1202.57
2019-04-01T10:35:06.767Z,1269.17
2019-04-01T10:37:35.873Z,1795.13
2019-04-01T10:40:06.171Z,946.17
2019-04-01T10:42:36.693Z,837.63
2019-04-01T10:45:06.785Z,949.37
2019-04-01T10:47:36.014Z,886.90
2019-04-01T10:50:06.811Z,915.37
2019-04-01T10:52:36.079Z,953.73
2019-04-01T10:55:05.852Z,916.80
2019-04-01T10:57:35.200Z,936.75
2019-04-01T11:00:05.992Z,1115.43
2019-04-01T11:02:35.205Z,971.42
2019-04-01T11:05:05.842Z,1155.65
2019-04-01T11:07:34.914Z,842.15
2019-04-01T11:10:05.557Z,942.20
2019-04-01T11:12:34.768Z,1203.13
2019-04-01T11:15:05.147Z,1999.90
2019-04-01T11:17:36.506Z,664.27
2019-04-01T11:20:08.025Z,960.17
2019-04-01T11:22:37.522Z,710.65
2019-04-01T11:25:07.213Z,1376.23
2019-04-01T11:27:36.386Z,1141.20
2019-04-01T11:30:07.762Z,1000.80
2019-04-01T11:32:37.799Z,1260.73
2019-04-01T11:35:07.632Z,743.00
2019-04-01T11:37:37.193Z,723.75
2019-04-01T11:40:11.143Z,686.10
2019-04-01T11:42:40.444Z,691.83
2019-04-01T11:45:09.424Z,938.18
2019-04-01T11:47:38.742Z,1446.58
2019-04-01T11:50:08.189Z,889.15
2019-04-01T11:52:38.229Z,1037.58
2019-04-01T11:55:09.141Z,1999.90
2019-04-01T11:57:38.747Z,660.80
2019-04-01T12:00:12.763Z,601.53
2019-04-01T12:02:41.928Z,675.05
2019-04-01T12:05:11.291Z,576.77
2019-04-01T12:07:40.396Z,738.27
2019-04-01T12:10:09.893Z,768.63
2019-04-01T12:12:38.949Z,735.08
2019-04-01T12:15:11.686Z,596.17
2019-04-01T12:17:41.514Z,602.62
2019-04-01T12:20:10.204Z,712.92
2019-04-01T12:22:40.619Z,551.40
2019-04-01T12:25:10.253Z,549.15
2019-04-01T12:27:39.480Z,637.12
2019-04-01T12:30:08.901Z,561.58
2019-04-01T12:32:38.243Z,531.35
2019-04-01T12:35:08.829Z,592.03
2019-04-01T12:37:38.062Z,598.90
2019-04-01T12:40:08.934Z,679.80
2019-04-01T12:42:38.291Z,601.13
2019-04-01T12:45:07.638Z,561.62
2019-04-01T12:47:36.906Z,670.40
2019-04-01T12:50:07.329Z,701.85
2019-04-01T12:52:36.527Z,600.30
2019-04-01T12:55:06.776Z,665.42
2019-04-01T12:57:36.330Z,623.47
2019-04-01T13:00:07.404Z,648.33
2019-04-01T13:02:55.992Z,743.33
2019-04-01T13:05:25.148Z,737.80
2019-04-01T13:07:54.461Z,1320.40
2019-04-01T13:10:48.705Z,745.40
2019-04-01T13:13:17.806Z,935.23
2019-04-01T13:15:47.085Z,1629.90
2019-04-01T13:18:16.375Z,1012.13
2019-04-01T13:20:45.827Z,835.27
2019-04-01T13:23:15.090Z,1667.93
2019-04-01T13:25:44.317Z,1134.47
2019-04-01T13:28:13.604Z,756.03
2019-04-01T13:30:43.780Z,971.20
2019-04-01T13:33:13.628Z,719.90
2019-04-01T13:35:42.855Z,587.50
2019-04-01T13:38:13.090Z,786.43
2019-04-01T13:40:42.415Z,785.92
2019-04-01T13:43:12.485Z,766.00
2019-04-01T13:45:42.029Z,768.23
2019-04-01T13:48:11.492Z,724.30
2019-04-01T13:50:40.558Z,833.17
2019-04-01T13:53:09.925Z,669.47
2019-04-01T13:55:39.240Z,735.93
2019-04-01T13:58:08.511Z,686.03
2019-04-01T14:00:37.831Z,740.27
2019-04-01T14:03:07.187Z,647.40
2019-04-01T14:05:36.723Z,723.40
2019-04-01T14:08:06.211Z,713.13
2019-04-01T14:10:35.512Z,679.80
2019-04-01T14:13:04.848Z,756.87
2019-04-01T14:15:34.130Z,778.07
2019-04-01T14:18:03.357Z,1237.97
2019-04-01T14:20:32.726Z,868.33
2019-04-01T14:23:02.055Z,803.37
2019-04-01T14:25:34.682Z,1056.23
2019-04-01T14:28:02.628Z,865.40
2019-04-01T14:30:31.878Z,822.77
2019-04-01T14:33:01.127Z,715.77
2019-04-01T14:35:30.364Z,739.60
2019-04-01T14:37:59.525Z,722.90
2019-04-01T14:40:32.379Z,628.13
2019-04-01T14:42:59.779Z,806.87
2019-04-01T14:45:29.123Z,654.90
2019-04-01T14:47:58.464Z,1153.43
2019-04-01T14:50:27.684Z,986.27
2019-04-01T14:52:56.971Z,1005.80
2019-04-01T14:55:26.166Z,945.57
2019-04-01T14:57:55.308Z,808.23
2019-04-01T15:00:24.510Z,892.80
2019-04-01T15:02:53.717Z,987.60
2019-04-01T15:05:22.948Z,815.50
2019-04-01T15:07:52.142Z,1083.03
2019-04-01T15:10:21.497Z,834.37
2019-04-01T15:13:04.504Z,925.23
2019-04-01T15:15:21.586Z,969.40
2019-04-01T15:17:50.821Z,978.00
2019-04-01T15:20:20.257Z,872.67
2019-04-01T15:22:49.952Z,1119.70
2019-04-01T15:25:19.381Z,1444.80
2019-04-01T15:27:48.541Z,970.87
2019-04-01T15:30:17.907Z,1297.37
2019-04-01T15:32:47.149Z,994.50
2019-04-01T15:35:16.396Z,936.03
2019-04-01T15:37:45.689Z,987.37
2019-04-01T15:40:15.238Z,865.20
2019-04-01T15:42:44.839Z,973.93
2019-04-01T15:45:14.416Z,755.70
2019-04-01T15:47:43.677Z,890.47
2019-04-01T15:50:27.269Z,1309.33
2019-04-01T15:52:43.846Z,1123.17
2019-04-01T15:55:13.152Z,1058.93
2019-04-01T15:57:42.222Z,1155.70
2019-04-01T16:00:11.804Z,1024.80
2019-04-01T16:02:41.423Z,1096.10
2019-04-01T16:05:10.699Z,1121.90
2019-04-01T16:07:41.712Z,1029.67
2019-04-01T16:10:10.425Z,998.23
2019-04-01T16:12:39.569Z,1073.83
2019-04-01T16:15:09.228Z,1078.47
2019-04-01T16:17:38.866Z,1096.90
2019-04-01T16:20:08.196Z,1169.30
2019-04-01T16:22:37.501Z,1125.90
2019-04-01T16:25:07.019Z,1049.27
2019-04-01T16:27:36.226Z,929.40
2019-04-01T16:30:06.673Z,1057.47
2019-04-01T16:32:36.204Z,1030.47
2019-04-01T16:35:06.673Z,939.73
2019-04-01T16:37:35.850Z,1005.07
2019-04-01T16:40:05.945Z,1098.53
2019-04-01T16:42:35.457Z,1115.10
2019-04-01T16:45:06.239Z,1082.53
2019-04-01T16:47:35.486Z,1031.83
2019-04-01T16:50:06.667Z,791.10
2019-04-01T16:52:36.123Z,879.20
2019-04-01T16:55:06.948Z,852.83
2019-04-01T16:57:36.353Z,830.57
2019-04-01T17:00:07.251Z,900.73
2019-04-01T17:02:36.718Z,909.17
2019-04-01T17:05:06.206Z,899.83
2019-04-01T17:07:35.304Z,899.57
2019-04-01T17:10:06.424Z,845.33
2019-04-01T17:12:35.694Z,934.10
2019-04-01T17:15:05.864Z,840.43
2019-04-01T17:17:36.104Z,1121.67
2019-04-01T17:20:06.527Z,832.33
2019-04-01T17:22:36.581Z,939.87
2019-04-01T17:25:07.088Z,907.23
2019-04-01T17:27:37.014Z,944.50
2019-04-01T17:30:07.476Z,999.73
2019-04-01T17:32:37.071Z,944.00
2019-04-01T17:35:07.914Z,1051.27
2019-04-01T17:37:38.172Z,974.13
2019-04-01T17:40:09.464Z,1060.70
2019-04-01T17:42:39.408Z,944.90
2019-04-01T17:45:11.190Z,982.30
2019-04-01T17:47:40.790Z,1023.53
2019-04-01T17:50:10.071Z,1063.83
2019-04-01T17:52:39.442Z,1087.80
2019-04-01T17:55:08.815Z,1031.33
2019-04-01T17:57:38.094Z,1078.97
2019-04-01T18:00:08.805Z,1099.90
2019-04-01T18:02:38.373Z,1083.10
2019-04-01T18:05:09.157Z,1135.20
2019-04-01T18:07:38.522Z,1107.20
2019-04-01T18:10:07.957Z,1094.43
2019-04-01T18:12:37.272Z,1072.00
2019-04-01T18:15:06.449Z,1067.43
2019-04-01T18:17:35.698Z,1062.57
2019-04-01T18:20:06.566Z,1040.03
2019-04-01T18:22:35.822Z,1024.27
2019-04-01T18:25:05.772Z,991.40
2019-04-01T18:27:35.221Z,1023.43
2019-04-01T18:30:06.469Z,1031.40
2019-04-01T18:32:36.078Z,1020.07
2019-04-01T18:35:06.038Z,985.37
2019-04-01T18:37:35.564Z,1012.17
2019-04-01T18:40:06.151Z,989.80
2019-04-01T18:42:35.756Z,977.47
2019-04-01T18:45:06.434Z,974.47
2019-04-01T18:47:38.776Z,1009.73
2019-04-01T18:50:06.611Z,986.27
2019-04-01T18:52:38.096Z,1040.87
2019-04-01T18:55:08.022Z,992.73
2019-04-01T18:57:37.406Z,1033.90
2019-04-01T19:00:08.213Z,991.63
2019-04-01T19:02:37.268Z,1010.97
2019-04-01T19:05:07.580Z,1012.97
2019-04-01T19:07:36.653Z,1013.23
2019-04-01T19:10:06.968Z,1041.53
2019-04-01T19:12:36.457Z,1037.87
2019-04-01T19:15:25.970Z,1034.93
2019-04-01T19:17:55.491Z,1176.27
2019-04-01T19:20:24.585Z,1077.77
2019-04-01T19:22:53.640Z,1059.30
2019-04-01T19:25:23.382Z,989.60
2019-04-01T19:27:52.637Z,1069.77
2019-04-01T19:30:21.852Z,1109.40
2019-04-01T19:32:52.168Z,1027.03
2019-04-01T19:35:33.859Z,1108.53
2019-04-01T19:38:02.898Z,1261.33
2019-04-01T19:40:31.934Z,1233.73
2019-04-01T19:43:03.476Z,1243.20
2019-04-01T19:45:31.623Z,1204.60
2019-04-01T19:48:00.683Z,1272.40
2019-04-01T19:50:31.112Z,1271.27
2019-04-01T19:53:02.741Z,1256.97
2019-04-01T19:55:31.252Z,1375.30
2019-04-01T19:58:00.424Z,1346.20
2019-04-01T20:00:30.576Z,1329.13
2019-04-01T20:03:00.225Z,1449.23
2019-04-01T20:05:29.448Z,1410.83
2019-04-01T20:07:58.424Z,1457.57
2019-04-01T20:10:28.511Z,1417.57
2019-04-01T20:12:57.709Z,1586.30
2019-04-01T20:15:26.867Z,1470.33
2019-04-01T20:17:55.923Z,1396.73
2019-04-01T20:20:25.059Z,1454.13
2019-04-01T20:22:54.483Z,1442.50
2019-04-01T20:25:23.536Z,1474.03
2019-04-01T20:27:52.825Z,1599.83
2019-04-01T20:30:22.303Z,1384.63
2019-04-01T20:32:51.810Z,1639.73
2019-04-01T20:35:23.718Z,1596.90
2019-04-01T20:37:52.772Z,1406.00
2019-04-01T20:40:21.920Z,1494.20
2019-04-01T20:42:51.128Z,1569.00
2019-04-01T20:45:20.498Z,1513.70
2019-04-01T20:47:50.442Z,1766.47
2019-04-01T20:50:19.829Z,1552.07
2019-04-01T20:52:50.347Z,1494.47
2019-04-01T20:55:19.734Z,1452.67
2019-04-01T20:57:48.795Z,1514.83
2019-04-01T21:00:18.188Z,1459.90
2019-04-01T21:02:47.569Z,1541.07
2019-04-01T21:05:16.779Z,1519.10
2019-04-01T21:07:47.095Z,1537.73
2019-04-01T21:10:16.908Z,1606.73
2019-04-01T21:12:46.242Z,1530.47
2019-04-01T21:15:15.619Z,1593.70
2019-04-01T21:17:44.722Z,1390.63
2019-04-01T21:20:13.920Z,1684.30
2019-04-01T21:22:43.131Z,1570.73
2019-04-01T21:25:12.816Z,1419.27
2019-04-01T21:27:43.288Z,1493.43
2019-04-01T21:30:12.530Z,1519.00
2019-04-01T21:32:41.879Z,1613.70
2019-04-01T21:35:11.133Z,1554.83
2019-04-01T21:37:40.558Z,1632.63
2019-04-01T21:40:10.089Z,1462.57
2019-04-01T21:42:39.353Z,1545.70
2019-04-01T21:45:08.620Z,1635.50
2019-04-01T21:47:38.196Z,1572.30
2019-04-01T21:50:07.776Z,1524.70
2019-04-01T21:52:37.040Z,1595.80
2019-04-01T21:55:08.317Z,1729.83
2019-04-01T21:57:37.459Z,1533.30
2019-04-01T22:00:08.307Z,1727.60
2019-04-01T22:02:39.045Z,1622.93
2019-04-01T22:05:10.163Z,1643.60
2019-04-01T22:07:39.441Z,1713.70
2019-04-01T22:10:08.837Z,1576.93
2019-04-01T22:12:38.280Z,1720.87
2019-04-01T22:15:08.242Z,1649.73
2019-04-01T22:17:37.335Z,1713.73
2019-04-01T22:20:07.785Z,1706.70
2019-04-01T22:22:37.470Z,1617.53
2019-04-01T22:25:07.007Z,1597.03
2019-04-01T22:27:36.061Z,1577.77
2019-04-01T22:30:07.183Z,1766.63
2019-04-01T22:32:38.963Z,1688.57
2019-04-01T22:35:08.655Z,1674.47
2019-04-01T22:37:38.112Z,1798.93
2019-04-01T22:40:07.866Z,1678.93
2019-04-01T22:42:37.206Z,1687.77
2019-04-01T22:45:07.005Z,1680.43
2019-04-01T22:47:36.399Z,1763.80
2019-04-01T22:50:06.720Z,1687.60
2019-04-01T22:52:36.151Z,1630.97
2019-04-01T22:55:05.796Z,1826.37
2019-04-01T22:57:35.011Z,1722.23
2019-04-01T23:00:05.325Z,1865.67
2019-04-01T23:02:36.193Z,1671.83
2019-04-01T23:05:06.151Z,1769.40
2019-04-01T23:07:35.178Z,1764.33
2019-04-01T23:10:05.998Z,1768.40
2019-04-01T23:12:35.264Z,1636.47
2019-04-01T23:15:06.077Z,1754.67
2019-04-01T23:17:35.345Z,1739.53
2019-04-01T23:20:05.361Z,1828.00
2019-04-01T23:22:34.725Z,1685.00
2019-04-01T23:25:04.365Z,1580.03
2019-04-01T23:27:33.517Z,1624.63
2019-04-01T23:30:04.360Z,1657.73
2019-04-01T23:32:34.825Z,1831.23
2019-04-01T23:35:05.186Z,1722.20
2019-04-01T23:37:34.449Z,1715.00
2019-04-01T23:40:04.589Z,1674.77
2019-04-01T23:42:33.745Z,1678.37
2019-04-01T23:45:03.349Z,1633.30
2019-04-01T23:47:32.410Z,1635.50
2019-04-01T23:50:01.718Z,1589.17
2019-04-01T23:52:30.807Z,1743.20
2019-04-01T23:55:00.958Z,1620.50
2019-04-01T23:57:30.383Z,1731.53
2019-04-01T23:59:59.604Z,1738.90
